Time;durP1;ratioP1;P1;durP2;ratioP2;P2;SDS_P1;SDS_P2;PMS_P1;PMS_P2;Temp;Humidity;BMP_temperature;BMP_pressure;BME280_temperature;BME280_humidity;BME280_pressure;Samples;Min_cycle;Max_cycle;Signal;HPM_P1;HPM_P2
2023/03/10 00:00:28;;;;;;;10.63;2.70;;;;;;;;;;4991213;28;20037;-48
2023/03/10 00:02:56;;;;;;;11.98;2.53;;;;;;;;;;4987298;28;20064;-46
2023/03/10 00:05:24;;;;;;;12.65;2.38;;;;;;;;;;4993442;28;20109;-45
2023/03/10 00:07:51;;;;;;;12.43;2.85;;;;;;;;;;5002349;28;20041;-47
2023/03/10 00:10:20;;;;;;;13.65;2.15;;;;;;;;;;4993579;28;20495;-46
2023/03/10 00:12:48;;;;;;;13.70;2.60;;;;;;;;;;5008007;28;20068;-45
2023/03/10 00:15:16;;;;;;;15.50;3.40;;;;;;;;;;4983080;28;20957;-46
2023/03/10 00:17:44;;;;;;;11.10;3.03;;;;;;;;;;5000627;28;20160;-46
2023/03/10 00:20:12;;;;;;;16.65;3.22;;;;;;;;;;4959831;28;20422;-47
2023/03/10 00:22:40;;;;;;;18.73;3.30;;;;;;;;;;4991363;28;21112;-45
2023/03/10 00:25:09;;;;;;;12.40;3.00;;;;;;;;;;4292683;28;10000329;-46
2023/03/10 00:27:38;;;;;;;14.80;2.53;;;;;;;;;;4997014;28;20044;-47
2023/03/10 00:30:06;;;;;;;11.15;2.53;;;;;;;;;;4992976;28;20279;-46
2023/03/10 00:32:34;;;;;;;12.40;2.40;;;;;;;;;;4984396;28;20079;-45
2023/03/10 00:35:02;;;;;;;11.50;2.55;;;;;;;;;;4987527;28;20128;-45
2023/03/10 00:37:30;;;;;;;12.57;2.70;;;;;;;;;;5002095;28;20083;-44
2023/03/10 00:39:57;;;;;;;12.97;2.73;;;;;;;;;;4994656;28;20129;-46
2023/03/10 00:42:29;;;;;;;12.05;2.80;;;;;;;;;;4985544;28;20041;-46
2023/03/10 00:44:59;;;;;;;12.45;2.30;;;;;;;;;;4993502;28;20484;-45
2023/03/10 00:47:27;;;;;;;13.27;2.80;;;;;;;;;;4988062;28;20528;-46
2023/03/10 00:49:55;;;;;;;13.98;3.00;;;;;;;;;;4999402;28;20137;-45
2023/03/10 00:52:22;;;;;;;14.20;2.90;;;;;;;;;;4991809;28;20136;-47
2023/03/10 00:54:50;;;;;;;29.13;8.10;;;;;;;;;;4995073;28;20141;-45
2023/03/10 00:57:18;;;;;;;31.33;8.05;;;;;;;;;;4993330;28;20091;-47
2023/03/10 00:59:45;;;;;;;34.88;8.98;;;;;;;;;;4985039;28;20108;-46
2023/03/10 01:02:18;;;;;;;33.10;8.13;;;;;;;;;;4994159;28;20065;-46
2023/03/10 01:04:46;;;;;;;28.50;7.77;;;;;;;;;;4972468;28;20029;-46
2023/03/10 01:07:14;;;;;;;20.98;6.28;;;;;;;;;;4984260;28;20065;-49
2023/03/10 01:09:41;;;;;;;20.63;6.05;;;;;;;;;;4983675;28;20045;-49
2023/03/10 01:12:09;;;;;;;19.55;5.80;;;;;;;;;;4989058;28;20637;-46
2023/03/10 01:14:37;;;;;;;22.25;6.13;;;;;;;;;;4998041;28;20069;-45
2023/03/10 01:17:04;;;;;;;18.13;6.43;;;;;;;;;;4988384;28;20117;-46
2023/03/10 01:19:33;;;;;;;17.13;5.72;;;;;;;;;;5005793;28;20038;-45
2023/03/10 01:22:01;;;;;;;19.27;6.88;;;;;;;;;;4987757;28;20712;-47
2023/03/10 01:24:29;;;;;;;20.27;6.53;;;;;;;;;;5001792;28;20046;-45
2023/03/10 01:26:56;;;;;;;19.00;6.65;;;;;;;;;;4997459;28;20058;-46
2023/03/10 01:29:24;;;;;;;20.53;6.27;;;;;;;;;;4997816;28;20041;-45
2023/03/10 01:31:52;;;;;;;17.73;5.95;;;;;;;;;;4970815;28;20516;-44
2023/03/10 01:34:19;;;;;;;25.13;7.03;;;;;;;;;;4995769;28;20572;-45
2023/03/10 01:36:48;;;;;;;21.30;6.45;;;;;;;;;;4989663;28;20499;-45
2023/03/10 01:39:20;;;;;;;16.73;5.78;;;;;;;;;;5001342;28;20127;-46
2023/03/10 01:41:48;;;;;;;17.40;5.33;;;;;;;;;;4997094;28;20052;-45
2023/03/10 01:44:17;;;;;;;18.05;5.78;;;;;;;;;;4985183;28;20588;-49
2023/03/10 01:46:46;;;;;;;20.55;6.72;;;;;;;;;;4998935;28;20087;-47
2023/03/10 01:49:22;;;;;;;21.90;6.95;;;;;;;;;;4959731;28;20098;-44
2023/03/10 01:51:54;;;;;;;20.13;5.35;;;;;;;;;;5003285;28;20076;-47
2023/03/10 01:54:24;;;;;;;19.13;6.23;;;;;;;;;;4972208;28;20139;-46
2023/03/10 01:56:53;;;;;;;20.17;6.30;;;;;;;;;;5000993;28;20053;-45
2023/03/10 01:59:21;;;;;;;20.63;7.40;;;;;;;;;;4982434;28;20061;-45
2023/03/10 02:01:50;;;;;;;20.48;7.28;;;;;;;;;;5000546;28;20034;-46
2023/03/10 02:04:22;;;;;;;18.55;6.63;;;;;;;;;;4983952;28;20030;-45
2023/03/10 02:06:50;;;;;;;18.00;5.90;;;;;;;;;;5007860;28;20120;-47
2023/03/10 02:09:19;;;;;;;16.58;4.93;;;;;;;;;;4994464;28;20546;-45
2023/03/10 02:11:49;;;;;;;20.77;4.80;;;;;;;;;;4990484;28;20047;-46
2023/03/10 02:14:17;;;;;;;13.52;3.90;;;;;;;;;;4989069;28;20069;-47
2023/03/10 02:16:45;;;;;;;11.48;4.18;;;;;;;;;;4949089;28;20514;-46
2023/03/10 02:19:20;;;;;;;12.77;3.77;;;;;;;;;;4995014;28;20034;-44
2023/03/10 02:21:51;;;;;;;10.55;2.60;;;;;;;;;;4968668;28;20125;-47
2023/03/10 02:24:26;;;;;;;10.63;2.80;;;;;;;;;;5002537;28;20470;-47
2023/03/10 02:26:56;;;;;;;10.20;3.15;;;;;;;;;;5008019;28;20076;-45
2023/03/10 02:29:28;;;;;;;9.02;2.67;;;;;;;;;;4998824;28;20041;-47
2023/03/10 02:31:56;;;;;;;11.13;2.37;;;;;;;;;;4995124;28;20496;-46
2023/03/10 02:34:26;;;;;;;9.63;2.40;;;;;;;;;;5001693;28;20487;-45
2023/03/10 02:36:54;;;;;;;12.35;2.97;;;;;;;;;;4997953;28;20423;-45
2023/03/10 02:39:22;;;;;;;10.05;3.20;;;;;;;;;;4988191;28;20038;-46
2023/03/10 02:41:50;;;;;;;9.63;2.40;;;;;;;;;;4993134;28;20047;-44
2023/03/10 02:44:20;;;;;;;8.97;2.43;;;;;;;;;;5005049;28;20462;-45
2023/03/10 02:46:49;;;;;;;9.57;2.15;;;;;;;;;;4991808;28;20045;-45
2023/03/10 02:49:17;;;;;;;8.88;2.40;;;;;;;;;;4986951;28;20389;-45
2023/03/10 02:51:47;;;;;;;10.48;2.35;;;;;;;;;;5000034;28;20099;-46
2023/03/10 02:54:15;;;;;;;7.50;2.33;;;;;;;;;;4976865;28;20066;-45
2023/03/10 02:56:42;;;;;;;10.33;2.27;;;;;;;;;;4990260;28;20045;-45
2023/03/10 02:59:11;;;;;;;11.30;2.20;;;;;;;;;;4998772;28;20049;-46
2023/03/10 03:01:39;;;;;;;9.05;2.58;;;;;;;;;;4992666;28;20061;-47
2023/03/10 03:04:08;;;;;;;9.13;2.75;;;;;;;;;;4999268;28;20416;-45
2023/03/10 03:06:39;;;;;;;11.20;3.40;;;;;;;;;;4988410;28;20829;-45
2023/03/10 03:09:08;;;;;;;10.80;2.70;;;;;;;;;;4984580;28;20236;-45
2023/03/10 03:11:35;;;;;;;10.05;2.90;;;;;;;;;;5008366;28;20065;-45
2023/03/10 03:14:03;;;;;;;9.77;2.17;;;;;;;;;;4988607;28;20087;-44
2023/03/10 03:16:31;;;;;;;11.20;2.75;;;;;;;;;;4996285;28;20063;-47
2023/03/10 03:18:58;;;;;;;9.43;2.67;;;;;;;;;;4996156;28;20038;-46
2023/03/10 03:21:28;;;;;;;9.70;2.10;;;;;;;;;;4999060;28;20100;-46
2023/03/10 03:23:55;;;;;;;10.30;2.20;;;;;;;;;;4988664;28;20064;-47
2023/03/10 03:26:24;;;;;;;9.60;2.22;;;;;;;;;;4985971;28;20092;-46
2023/03/10 03:28:52;;;;;;;9.35;1.90;;;;;;;;;;5016136;28;20625;-46
2023/03/10 03:31:21;;;;;;;7.25;1.95;;;;;;;;;;4987376;28;20416;-48
2023/03/10 03:33:49;;;;;;;5.47;1.20;;;;;;;;;;5009944;28;20052;-47
2023/03/10 03:36:17;;;;;;;6.47;1.65;;;;;;;;;;4982500;28;20049;-45
2023/03/10 03:38:46;;;;;;;6.25;1.63;;;;;;;;;;5005901;28;20043;-45
2023/03/10 03:41:14;;;;;;;7.85;1.42;;;;;;;;;;4964604;28;20033;-46
2023/03/10 03:43:41;;;;;;;4.47;1.10;;;;;;;;;;4992663;28;20041;-45
2023/03/10 03:46:09;;;;;;;5.07;1.20;;;;;;;;;;4994249;28;20033;-46
2023/03/10 03:48:37;;;;;;;5.78;1.10;;;;;;;;;;4980052;28;20046;-45
2023/03/10 03:51:05;;;;;;;5.38;1.20;;;;;;;;;;5008117;28;20045;-48
2023/03/10 03:53:33;;;;;;;5.32;0.90;;;;;;;;;;4981632;28;20057;-47
2023/03/10 03:56:07;;;;;;;5.72;0.82;;;;;;;;;;4985384;28;20038;-46
2023/03/10 03:58:35;;;;;;;5.10;0.80;;;;;;;;;;4985195;28;20198;-45
2023/03/10 04:01:02;;;;;;;4.30;0.70;;;;;;;;;;5001802;28;20121;-46
2023/03/10 04:03:30;;;;;;;4.53;0.80;;;;;;;;;;4988691;28;20443;-46
2023/03/10 04:05:58;;;;;;;4.10;0.60;;;;;;;;;;4949355;28;20435;-49
2023/03/10 04:08:25;;;;;;;4.47;0.70;;;;;;;;;;4985586;28;20033;-46
2023/03/10 04:10:54;;;;;;;4.87;0.93;;;;;;;;;;5007611;28;20085;-49
2023/03/10 04:13:23;;;;;;;3.78;0.70;;;;;;;;;;4978963;28;20113;-47
2023/03/10 04:15:54;;;;;;;4.13;0.60;;;;;;;;;;4989091;28;20110;-48
2023/03/10 04:18:22;;;;;;;3.90;0.60;;;;;;;;;;5002795;28;21034;-46
2023/03/10 04:20:49;;;;;;;3.33;0.57;;;;;;;;;;4994013;28;20116;-49
2023/03/10 04:23:17;;;;;;;4.10;0.70;;;;;;;;;;4992696;28;20041;-46
2023/03/10 04:25:44;;;;;;;3.80;0.68;;;;;;;;;;5000354;28;20497;-46
2023/03/10 04:28:12;;;;;;;4.05;0.93;;;;;;;;;;4974082;28;20124;-45
2023/03/10 04:30:42;;;;;;;3.75;0.60;;;;;;;;;;5012838;28;20487;-46
2023/03/10 04:33:13;;;;;;;4.57;0.70;;;;;;;;;;4993169;28;20463;-47
2023/03/10 04:35:41;;;;;;;4.30;0.80;;;;;;;;;;4992289;28;20055;-45
2023/03/10 04:38:09;;;;;;;3.80;0.50;;;;;;;;;;4975678;28;20091;-46
2023/03/10 04:40:38;;;;;;;4.20;0.65;;;;;;;;;;4995633;28;20030;-46
2023/03/10 04:43:06;;;;;;;3.20;0.55;;;;;;;;;;4974839;28;20034;-45
2023/03/10 04:45:34;;;;;;;2.47;0.20;;;;;;;;;;4983039;28;20455;-47
2023/03/10 04:48:04;;;;;;;2.93;0.40;;;;;;;;;;4995710;28;20120;-46
2023/03/10 04:50:32;;;;;;;3.38;0.40;;;;;;;;;;4988420;28;20033;-45
2023/03/10 04:53:00;;;;;;;2.65;0.35;;;;;;;;;;4970550;28;20042;-47
2023/03/10 04:55:27;;;;;;;2.33;0.20;;;;;;;;;;4994400;28;20060;-48
2023/03/10 04:57:55;;;;;;;3.08;0.35;;;;;;;;;;4998881;28;20080;-47
2023/03/10 05:00:22;;;;;;;2.17;0.30;;;;;;;;;;4988753;28;20458;-46
2023/03/10 05:02:52;;;;;;;1.88;0.30;;;;;;;;;;4989086;28;20060;-46
2023/03/10 05:05:21;;;;;;;2.22;0.25;;;;;;;;;;4990753;28;20163;-47
2023/03/10 05:07:48;;;;;;;2.55;0.25;;;;;;;;;;4988205;28;20667;-45
2023/03/10 05:10:16;;;;;;;2.85;0.30;;;;;;;;;;4993875;28;20057;-45
2023/03/10 05:12:47;;;;;;;2.07;0.23;;;;;;;;;;4978848;28;20052;-46
2023/03/10 05:15:15;;;;;;;1.92;0.20;;;;;;;;;;5004523;28;20041;-46
2023/03/10 05:17:43;;;;;;;2.85;0.30;;;;;;;;;;4983781;28;20976;-45
2023/03/10 05:20:11;;;;;;;2.53;0.30;;;;;;;;;;4999460;28;20437;-45
2023/03/10 05:22:40;;;;;;;2.15;0.20;;;;;;;;;;4988717;28;20095;-48
2023/03/10 05:25:09;;;;;;;2.27;0.30;;;;;;;;;;4997162;28;20066;-50
2023/03/10 05:27:38;;;;;;;3.30;0.35;;;;;;;;;;4986944;28;20049;-46
2023/03/10 05:30:06;;;;;;;3.05;0.45;;;;;;;;;;4986599;28;20045;-47
2023/03/10 05:32:34;;;;;;;2.22;0.30;;;;;;;;;;4987170;28;20437;-46
2023/03/10 05:35:03;;;;;;;3.15;0.40;;;;;;;;;;4993458;28;20037;-51
2023/03/10 05:37:36;;;;;;;2.77;0.23;;;;;;;;;;4984501;28;20050;-46
2023/03/10 05:40:07;;;;;;;2.63;0.30;;;;;;;;;;4993054;28;20047;-46
2023/03/10 05:42:34;;;;;;;3.45;0.60;;;;;;;;;;4989212;28;20087;-47
2023/03/10 05:45:03;;;;;;;2.50;0.30;;;;;;;;;;5003012;28;20127;-46
2023/03/10 05:47:32;;;;;;;2.92;0.38;;;;;;;;;;4987669;28;20712;-47
2023/03/10 05:50:00;;;;;;;3.40;0.30;;;;;;;;;;4995847;28;21196;-46
2023/03/10 05:52:27;;;;;;;2.65;0.30;;;;;;;;;;5003654;28;20587;-47
2023/03/10 05:54:55;;;;;;;2.75;0.40;;;;;;;;;;4992668;28;20061;-45
2023/03/10 05:57:24;;;;;;;2.13;0.30;;;;;;;;;;4996207;28;20526;-45
2023/03/10 05:59:52;;;;;;;3.20;0.63;;;;;;;;;;4993640;28;20030;-46
2023/03/10 06:02:19;;;;;;;2.83;0.33;;;;;;;;;;4998333;28;20033;-48
2023/03/10 06:04:47;;;;;;;2.28;0.40;;;;;;;;;;4999606;28;20046;-45
2023/03/10 06:07:14;;;;;;;2.25;0.30;;;;;;;;;;5004360;28;20040;-47
2023/03/10 06:09:42;;;;;;;4.70;0.25;;;;;;;;;;4985600;28;20046;-46
2023/03/10 06:12:10;;;;;;;3.40;0.35;;;;;;;;;;5011095;28;20040;-45
2023/03/10 06:14:40;;;;;;;1.60;0.20;;;;;;;;;;4990668;28;20046;-46
2023/03/10 06:17:10;;;;;;;1.63;0.20;;;;;;;;;;5002403;28;20042;-46
2023/03/10 06:19:38;;;;;;;1.77;0.20;;;;;;;;;;5000738;28;20045;-46
2023/03/10 06:22:06;;;;;;;1.77;0.10;;;;;;;;;;4995560;28;20064;-47
2023/03/10 06:24:33;;;;;;;1.45;0.20;;;;;;;;;;5005330;28;20041;-48
2023/03/10 06:27:01;;;;;;;1.00;0.20;;;;;;;;;;4993339;28;20045;-47
2023/03/10 06:29:28;;;;;;;1.50;0.10;;;;;;;;;;4992454;28;20133;-47
2023/03/10 06:31:57;;;;;;;0.70;0.10;;;;;;;;;;4997104;28;20687;-47
2023/03/10 06:34:25;;;;;;;1.45;0.13;;;;;;;;;;4992565;28;20088;-46
2023/03/10 06:36:54;;;;;;;0.80;0.10;;;;;;;;;;4998979;28;20130;-46
2023/03/10 06:39:22;;;;;;;1.03;0.10;;;;;;;;;;4993324;28;20092;-46
2023/03/10 06:41:52;;;;;;;0.90;0.10;;;;;;;;;;4993791;28;20046;-47
2023/03/10 06:44:19;;;;;;;1.10;0.10;;;;;;;;;;4995912;28;20062;-45
2023/03/10 06:46:47;;;;;;;1.38;0.10;;;;;;;;;;4994881;28;20045;-46
2023/03/10 06:49:16;;;;;;;2.53;0.20;;;;;;;;;;5004385;28;20048;-47
2023/03/10 06:51:44;;;;;;;1.70;0.23;;;;;;;;;;4993087;28;20045;-46
2023/03/10 06:54:11;;;;;;;2.20;0.20;;;;;;;;;;4980094;28;20040;-45
2023/03/10 06:56:39;;;;;;;1.52;0.20;;;;;;;;;;4997751;28;20527;-48
2023/03/10 06:59:07;;;;;;;1.67;0.20;;;;;;;;;;4987187;28;21140;-45
2023/03/10 07:01:34;;;;;;;1.63;0.25;;;;;;;;;;4983707;28;20506;-49
2023/03/10 07:04:02;;;;;;;4.70;0.30;;;;;;;;;;4982542;28;20036;-46
2023/03/10 07:06:51;;;;;;;1.77;0.20;;;;;;;;;;5009379;28;20048;-47
2023/03/10 07:09:19;;;;;;;2.58;0.30;;;;;;;;;;4986463;28;20038;-45
2023/03/10 07:11:47;;;;;;;1.90;0.30;;;;;;;;;;5001839;28;20500;-45
2023/03/10 07:14:14;;;;;;;1.63;0.17;;;;;;;;;;5000704;28;20386;-47
2023/03/10 07:16:42;;;;;;;2.30;0.20;;;;;;;;;;4998469;28;20116;-45
2023/03/10 07:19:09;;;;;;;2.20;0.30;;;;;;;;;;4982205;28;20140;-47
2023/03/10 07:21:37;;;;;;;2.55;0.40;;;;;;;;;;4995697;28;20483;-47
2023/03/10 07:24:06;;;;;;;1.75;0.25;;;;;;;;;;4989627;28;20558;-45
2023/03/10 07:26:34;;;;;;;1.48;0.20;;;;;;;;;;5012016;28;20045;-45
2023/03/10 07:29:03;;;;;;;1.60;0.10;;;;;;;;;;4996203;28;20128;-46
2023/03/10 07:31:31;;;;;;;2.35;0.20;;;;;;;;;;4998552;28;20095;-45
2023/03/10 07:34:00;;;;;;;1.45;0.10;;;;;;;;;;4985350;28;20488;-48
2023/03/10 07:36:28;;;;;;;1.40;0.20;;;;;;;;;;4999844;28;20427;-46
2023/03/10 07:39:03;;;;;;;1.70;0.20;;;;;;;;;;4992036;28;20583;-45
2023/03/10 07:41:32;;;;;;;2.80;0.30;;;;;;;;;;4989592;28;20041;-46
2023/03/10 07:44:00;;;;;;;1.85;0.20;;;;;;;;;;4986674;28;20073;-45
2023/03/10 07:46:27;;;;;;;2.55;0.30;;;;;;;;;;4992004;28;20488;-46
2023/03/10 07:48:57;;;;;;;2.10;0.25;;;;;;;;;;4983855;28;20069;-45
2023/03/10 07:51:24;;;;;;;3.03;0.30;;;;;;;;;;4998696;28;20044;-45
2023/03/10 07:53:52;;;;;;;1.80;0.20;;;;;;;;;;4974194;28;20057;-45
2023/03/10 07:56:20;;;;;;;1.77;0.20;;;;;;;;;;4961235;28;20928;-44
2023/03/10 07:58:50;;;;;;;2.45;0.30;;;;;;;;;;4973743;28;20056;-46
2023/03/10 08:01:18;;;;;;;2.58;0.30;;;;;;;;;;4981994;28;20128;-46
2023/03/10 08:03:45;;;;;;;2.63;0.40;;;;;;;;;;4959824;28;20065;-44
2023/03/10 08:06:17;;;;;;;2.50;0.33;;;;;;;;;;4988413;28;20092;-46
2023/03/10 08:08:45;;;;;;;2.53;0.40;;;;;;;;;;4967432;28;21119;-47
2023/03/10 08:11:13;;;;;;;3.35;0.52;;;;;;;;;;4978264;28;20042;-45
2023/03/10 08:13:40;;;;;;;3.33;0.50;;;;;;;;;;4965950;28;20555;-44
2023/03/10 08:16:09;;;;;;;2.88;0.40;;;;;;;;;;4975222;28;20608;-45
2023/03/10 08:18:37;;;;;;;2.67;0.50;;;;;;;;;;4983192;28;20622;-44
2023/03/10 08:21:06;;;;;;;3.30;0.47;;;;;;;;;;4964423;28;20037;-45
2023/03/10 08:23:36;;;;;;;3.03;0.60;;;;;;;;;;4973683;28;20048;-45
2023/03/10 08:26:05;;;;;;;2.40;0.28;;;;;;;;;;4974463;28;20034;-46
2023/03/10 08:28:34;;;;;;;2.88;0.40;;;;;;;;;;4971950;28;20565;-46
2023/03/10 08:31:06;;;;;;;2.07;0.30;;;;;;;;;;4979801;28;20403;-46
2023/03/10 08:33:36;;;;;;;3.17;0.50;;;;;;;;;;4974510;28;20034;-46
2023/03/10 08:36:07;;;;;;;3.08;0.40;;;;;;;;;;4967063;28;20407;-46
2023/03/10 08:38:35;;;;;;;2.40;0.30;;;;;;;;;;4972592;28;20037;-44
2023/03/10 08:41:13;;;;;;;3.92;0.47;;;;;;;;;;4963389;28;20471;-44
2023/03/10 08:43:41;;;;;;;2.57;0.40;;;;;;;;;;4974993;28;20464;-46
2023/03/10 08:46:10;;;;;;;2.95;0.40;;;;;;;;;;4967544;28;20034;-46
2023/03/10 08:48:39;;;;;;;2.67;0.60;;;;;;;;;;4972931;28;20042;-44
2023/03/10 08:51:10;;;;;;;2.40;0.30;;;;;;;;;;4971546;28;20046;-47
2023/03/10 08:53:46;;;;;;;2.75;0.40;;;;;;;;;;5000249;28;20115;-47
2023/03/10 08:56:15;;;;;;;2.60;0.30;;;;;;;;;;4976542;28;20045;-46
2023/03/10 08:58:43;;;;;;;3.33;0.40;;;;;;;;;;4998620;28;20567;-44
2023/03/10 09:01:11;;;;;;;2.72;0.40;;;;;;;;;;4996385;28;20478;-46
2023/03/10 09:03:41;;;;;;;4.40;0.40;;;;;;;;;;4976790;28;20036;-46
2023/03/10 09:06:08;;;;;;;3.45;0.20;;;;;;;;;;4966861;28;20310;-45
2023/03/10 09:08:38;;;;;;;2.33;0.30;;;;;;;;;;5001164;28;20821;-45
2023/03/10 09:11:07;;;;;;;4.43;0.50;;;;;;;;;;4996215;28;20225;-46
2023/03/10 09:13:39;;;;;;;4.68;0.50;;;;;;;;;;4998463;28;20034;-45
2023/03/10 09:16:08;;;;;;;3.70;0.40;;;;;;;;;;4984753;28;20042;-45
2023/03/10 09:18:38;;;;;;;5.18;0.55;;;;;;;;;;4992519;28;20064;-44
2023/03/10 09:21:15;;;;;;;4.89;0.54;;;;;;;;;;4551691;28;10002807;-47
2023/03/10 09:23:44;;;;;;;4.47;0.50;;;;;;;;;;4971668;28;20037;-46
2023/03/10 09:26:12;;;;;;;4.30;0.53;;;;;;;;;;4999418;28;20073;-45
2023/03/10 09:28:40;;;;;;;3.42;0.40;;;;;;;;;;4993173;28;20069;-44
2023/03/10 09:31:14;;;;;;;3.85;0.50;;;;;;;;;;4979967;28;20042;-45
2023/03/10 09:33:41;;;;;;;2.97;0.40;;;;;;;;;;4985274;28;20510;-44
2023/03/10 09:36:09;;;;;;;3.30;0.60;;;;;;;;;;4987507;28;20040;-45
2023/03/10 09:38:40;;;;;;;3.40;0.40;;;;;;;;;;5003158;28;20045;-45
2023/03/10 09:41:17;;;;;;;3.00;0.47;;;;;;;;;;4632623;28;10000536;-45
2023/03/10 09:43:49;;;;;;;2.78;0.47;;;;;;;;;;4961106;28;20080;-46
2023/03/10 09:46:20;;;;;;;3.57;0.57;;;;;;;;;;4960711;28;20046;-45
2023/03/10 09:48:52;;;;;;;3.75;0.30;;;;;;;;;;4977244;28;20041;-48
2023/03/10 09:51:22;;;;;;;4.43;0.75;;;;;;;;;;4964891;28;20037;-46
2023/03/10 09:53:55;;;;;;;3.70;0.50;;;;;;;;;;4953159;28;20188;-44
2023/03/10 09:56:26;;;;;;;3.47;0.50;;;;;;;;;;4977937;28;20128;-45
2023/03/10 09:58:58;;;;;;;3.40;0.33;;;;;;;;;;4977687;28;20369;-45
2023/03/10 10:01:27;;;;;;;5.10;0.80;;;;;;;;;;4966619;28;20049;-45
2023/03/10 10:03:57;;;;;;;3.95;0.77;;;;;;;;;;4976498;28;20033;-45
2023/03/10 10:06:26;;;;;;;4.40;0.90;;;;;;;;;;4963990;28;20037;-46
2023/03/10 10:09:04;;;;;;;3.78;0.75;;;;;;;;;;4982573;28;21567;-45
2023/03/10 10:11:34;;;;;;;4.07;0.80;;;;;;;;;;4971371;28;20156;-45
2023/03/10 10:14:15;;;;;;;4.25;0.80;;;;;;;;;;4972309;28;20081;-45
2023/03/10 10:16:58;;;;;;;3.85;0.68;;;;;;;;;;4977850;28;20052;-48
2023/03/10 10:19:27;;;;;;;4.30;0.75;;;;;;;;;;4972765;28;20060;-45
2023/03/10 10:22:01;;;;;;;3.97;0.80;;;;;;;;;;4985109;28;20519;-44
2023/03/10 10:24:31;;;;;;;3.43;0.67;;;;;;;;;;4974070;28;20710;-45
2023/03/10 10:26:59;;;;;;;3.92;0.65;;;;;;;;;;4967832;28;20116;-47
2023/03/10 10:29:30;;;;;;;3.80;0.60;;;;;;;;;;4976687;28;20107;-46
2023/03/10 10:32:05;;;;;;;3.50;0.60;;;;;;;;;;4982115;28;20050;-47
2023/03/10 10:34:34;;;;;;;3.22;0.65;;;;;;;;;;4957040;28;20720;-50
2023/03/10 10:37:02;;;;;;;3.10;0.30;;;;;;;;;;4991643;28;20037;-48
2023/03/10 10:39:33;;;;;;;5.50;0.70;;;;;;;;;;4969022;28;20699;-46
2023/03/10 10:42:23;;;;;;;3.65;0.50;;;;;;;;;;4990985;28;20136;-46
2023/03/10 10:44:52;;;;;;;3.47;0.60;;;;;;;;;;4984179;28;20041;-45
2023/03/10 10:47:27;;;;;;;3.15;0.50;;;;;;;;;;4966388;28;20034;-46
2023/03/10 10:49:55;;;;;;;3.13;0.50;;;;;;;;;;4980339;28;20049;-45
2023/03/10 10:52:24;;;;;;;3.33;0.50;;;;;;;;;;4982973;28;20141;-46
2023/03/10 10:54:56;;;;;;;5.63;0.80;;;;;;;;;;4971755;28;21018;-45
2023/03/10 10:57:25;;;;;;;4.60;0.80;;;;;;;;;;4976882;28;20034;-47
2023/03/10 10:59:53;;;;;;;3.83;0.90;;;;;;;;;;4977076;28;20454;-46
2023/03/10 11:02:23;;;;;;;5.40;0.97;;;;;;;;;;4984745;28;20127;-46
2023/03/10 11:04:51;;;;;;;3.28;0.60;;;;;;;;;;4945156;28;20591;-46
2023/03/10 11:07:20;;;;;;;3.88;0.82;;;;;;;;;;4989348;28;20043;-46
2023/03/10 11:09:49;;;;;;;4.00;0.70;;;;;;;;;;4965052;28;20103;-46
2023/03/10 11:12:23;;;;;;;4.10;0.73;;;;;;;;;;4979368;28;20512;-45
2023/03/10 11:15:00;;;;;;;3.53;0.70;;;;;;;;;;4992377;28;20041;-49
2023/03/10 11:17:31;;;;;;;4.13;0.70;;;;;;;;;;4960672;28;22052;-46
2023/03/10 11:20:05;;;;;;;4.03;1.20;;;;;;;;;;4987937;28;20152;-45
2023/03/10 11:22:37;;;;;;;4.35;0.90;;;;;;;;;;4965324;28;20458;-46
2023/03/10 11:25:16;;;;;;;6.40;0.90;;;;;;;;;;4984297;28;20757;-46
2023/03/10 11:27:48;;;;;;;3.43;0.67;;;;;;;;;;4981681;28;20164;-44
2023/03/10 11:30:17;;;;;;;2.60;0.50;;;;;;;;;;4980366;28;20402;-45
2023/03/10 11:32:52;;;;;;;3.95;0.80;;;;;;;;;;4972933;28;20045;-45
2023/03/10 11:35:24;;;;;;;5.50;0.77;;;;;;;;;;4984590;28;20048;-44
2023/03/10 11:37:54;;;;;;;4.00;0.77;;;;;;;;;;4955410;28;20454;-45
2023/03/10 11:40:26;;;;;;;3.77;0.53;;;;;;;;;;4975725;28;20052;-47
2023/03/10 11:43:00;;;;;;;3.42;0.60;;;;;;;;;;4282079;28;10000144;-45
2023/03/10 11:45:31;;;;;;;4.40;0.60;;;;;;;;;;4983700;28;20065;-46
2023/03/10 11:48:07;;;;;;;5.13;0.73;;;;;;;;;;4968329;28;20108;-44
2023/03/10 11:50:41;;;;;;;3.63;0.60;;;;;;;;;;4989043;28;20052;-46
2023/03/10 11:53:12;;;;;;;3.50;0.50;;;;;;;;;;4967020;28;20153;-45
2023/03/10 11:55:40;;;;;;;3.38;0.50;;;;;;;;;;4989709;28;20568;-45
2023/03/10 11:58:14;;;;;;;3.95;0.90;;;;;;;;;;4956736;28;20763;-47
2023/03/10 12:00:42;;;;;;;3.85;0.80;;;;;;;;;;4991856;28;20058;-45
2023/03/10 12:03:15;;;;;;;3.80;0.70;;;;;;;;;;4966802;28;20042;-47
2023/03/10 12:05:50;;;;;;;5.20;1.17;;;;;;;;;;4971969;28;20057;-47
2023/03/10 12:08:21;;;;;;;4.32;1.02;;;;;;;;;;4984971;28;20132;-45
2023/03/10 12:10:49;;;;;;;4.30;0.82;;;;;;;;;;4959593;28;20595;-47
2023/03/10 12:13:23;;;;;;;2.53;0.47;;;;;;;;;;4973876;28;20045;-48
2023/03/10 12:15:54;;;;;;;4.13;0.90;;;;;;;;;;4982806;28;21821;-48
2023/03/10 12:18:22;;;;;;;4.03;0.83;;;;;;;;;;4968902;28;20045;-47
2023/03/10 12:21:10;;;;;;;4.05;1.05;;;;;;;;;;4967341;28;20508;-48
2023/03/10 12:23:39;;;;;;;5.10;1.10;;;;;;;;;;4978076;28;20585;-46
2023/03/10 12:26:14;;;;;;;5.63;1.30;;;;;;;;;;4980319;28;20547;-45
2023/03/10 12:28:43;;;;;;;4.13;0.80;;;;;;;;;;4982285;28;20115;-46
2023/03/10 12:31:13;;;;;;;5.03;1.40;;;;;;;;;;4963930;28;20041;-45
2023/03/10 12:33:46;;;;;;;5.28;1.10;;;;;;;;;;4973560;28;20038;-45
2023/03/10 12:36:16;;;;;;;3.97;1.10;;;;;;;;;;4970757;28;20826;-47
2023/03/10 12:38:45;;;;;;;4.18;1.00;;;;;;;;;;4985295;28;20046;-47
2023/03/10 12:41:14;;;;;;;4.05;1.10;;;;;;;;;;4965513;28;20045;-48
2023/03/10 12:44:02;;;;;;;3.80;1.10;;;;;;;;;;4970485;28;20053;-48
2023/03/10 12:46:40;;;;;;;4.18;0.80;;;;;;;;;;4990674;28;20095;-47
2023/03/10 12:49:17;;;;;;;5.82;1.27;;;;;;;;;;4972551;28;20890;-46
2023/03/10 12:51:48;;;;;;;4.93;1.17;;;;;;;;;;5001577;28;20049;-50
2023/03/10 12:54:33;;;;;;;5.72;1.25;;;;;;;;;;4991735;28;20120;-46
2023/03/10 12:57:05;;;;;;;4.23;0.90;;;;;;;;;;4982393;28;20072;-46
2023/03/10 12:59:35;;;;;;;4.18;1.02;;;;;;;;;;5002671;28;20037;-47
2023/03/10 13:02:14;;;;;;;5.75;1.05;;;;;;;;;;4996524;28;20132;-46
2023/03/10 13:04:42;;;;;;;5.45;1.05;;;;;;;;;;4990219;28;20045;-47
2023/03/10 13:07:14;;;;;;;4.43;1.10;;;;;;;;;;5005702;28;20120;-49
2023/03/10 13:09:42;;;;;;;4.67;0.63;;;;;;;;;;4990340;28;20037;-48
2023/03/10 13:12:13;;;;;;;7.82;1.15;;;;;;;;;;5001705;28;20047;-47
2023/03/10 13:14:44;;;;;;;5.07;0.98;;;;;;;;;;5001631;28;20045;-49
2023/03/10 13:17:23;;;;;;;3.88;0.95;;;;;;;;;;4992006;28;20053;-47
2023/03/10 13:19:58;;;;;;;4.53;0.98;;;;;;;;;;4995178;28;20128;-48
2023/03/10 13:22:26;;;;;;;6.93;1.00;;;;;;;;;;4982583;28;20456;-46
2023/03/10 13:24:58;;;;;;;3.17;0.68;;;;;;;;;;4294802;28;10021703;-48
2023/03/10 13:27:29;;;;;;;4.40;0.70;;;;;;;;;;4992456;28;20048;-46
2023/03/10 13:29:57;;;;;;;5.32;1.00;;;;;;;;;;4989269;28;20053;-47
2023/03/10 13:32:26;;;;;;;3.80;0.80;;;;;;;;;;4994566;28;20049;-49
2023/03/10 13:34:55;;;;;;;4.13;0.80;;;;;;;;;;4975935;28;20251;-47
2023/03/10 13:37:23;;;;;;;4.72;1.05;;;;;;;;;;4994595;28;20041;-46
2023/03/10 13:39:50;;;;;;;3.53;0.60;;;;;;;;;;4624973;28;9999754;-46
2023/03/10 13:42:21;;;;;;;4.85;0.75;;;;;;;;;;4996751;28;20049;-46
2023/03/10 13:45:12;;;;;;;4.40;0.90;;;;;;;;;;5001966;28;20049;-47
2023/03/10 13:47:42;;;;;;;3.70;0.80;;;;;;;;;;4983263;28;20112;-48
2023/03/10 13:50:13;;;;;;;4.80;0.90;;;;;;;;;;4997481;28;20037;-47
2023/03/10 13:52:51;;;;;;;3.53;0.60;;;;;;;;;;4985132;28;20640;-46
2023/03/10 13:55:22;;;;;;;4.93;0.80;;;;;;;;;;4988485;28;20507;-46
2023/03/10 13:57:51;;;;;;;3.10;0.55;;;;;;;;;;4982614;28;20139;-46
2023/03/10 14:00:20;;;;;;;4.87;0.77;;;;;;;;;;5002587;28;20076;-49
2023/03/10 14:02:49;;;;;;;4.25;0.73;;;;;;;;;;4993601;28;20595;-48
2023/03/10 14:05:40;;;;;;;5.05;0.70;;;;;;;;;;5002024;28;20046;-47
2023/03/10 14:08:17;;;;;;;3.20;0.50;;;;;;;;;;4978936;28;20033;-46
2023/03/10 14:10:45;;;;;;;2.90;0.60;;;;;;;;;;4994524;28;20065;-45
2023/03/10 14:13:27;;;;;;;3.93;0.73;;;;;;;;;;4992722;28;20040;-46
2023/03/10 14:15:55;;;;;;;3.28;0.68;;;;;;;;;;4978914;28;20395;-47
2023/03/10 14:18:26;;;;;;;4.60;0.75;;;;;;;;;;4990455;28;20068;-48
2023/03/10 14:20:55;;;;;;;3.45;0.63;;;;;;;;;;4970821;28;20123;-46
2023/03/10 14:23:25;;;;;;;3.25;0.55;;;;;;;;;;4989123;28;20129;-46
2023/03/10 14:25:54;;;;;;;4.07;0.80;;;;;;;;;;4991785;28;20041;-46
2023/03/10 14:28:24;;;;;;;4.45;0.50;;;;;;;;;;4986121;28;20042;-47
2023/03/10 14:30:52;;;;;;;4.18;0.70;;;;;;;;;;5003909;28;20117;-46
2023/03/10 14:33:20;;;;;;;3.80;0.50;;;;;;;;;;4992882;28;20041;-46
2023/03/10 14:35:50;;;;;;;2.80;0.43;;;;;;;;;;4995266;28;20037;-47
2023/03/10 14:38:18;;;;;;;5.30;0.50;;;;;;;;;;4987472;28;20484;-47
2023/03/10 14:40:47;;;;;;;2.35;0.40;;;;;;;;;;4984844;28;20100;-46
2023/03/10 14:43:17;;;;;;;2.97;0.55;;;;;;;;;;5003184;28;20041;-46
2023/03/10 14:45:50;;;;;;;3.90;0.47;;;;;;;;;;4996411;28;20042;-49
2023/03/10 14:48:19;;;;;;;4.65;0.70;;;;;;;;;;4988350;28;20033;-46
2023/03/10 14:50:49;;;;;;;3.13;0.50;;;;;;;;;;4987773;28;20059;-46
2023/03/10 14:53:18;;;;;;;3.40;0.50;;;;;;;;;;4981345;28;20582;-46
2023/03/10 14:55:47;;;;;;;3.78;0.40;;;;;;;;;;5000605;28;20045;-47